sensor_id;sensor_type;location;lat;lon;timestamp;temperature;humidity
36690;DHT22;22676;51.120;3.702;2024-01-30T00:02:16;23.20;44.30
36690;DHT22;22676;51.120;3.702;2024-01-30T00:04:42;23.20;44.40
36690;DHT22;22676;51.120;3.702;2024-01-30T00:07:07;23.20;44.40
36690;DHT22;22676;51.120;3.702;2024-01-30T00:09:33;23.30;44.40
36690;DHT22;22676;51.120;3.702;2024-01-30T00:11:59;23.20;44.40
36690;DHT22;22676;51.120;3.702;2024-01-30T00:14:25;23.20;44.30
36690;DHT22;22676;51.120;3.702;2024-01-30T00:16:51;23.20;44.80
36690;DHT22;22676;51.120;3.702;2024-01-30T00:19:17;23.30;43.90
36690;DHT22;22676;51.120;3.702;2024-01-30T00:21:43;23.30;43.30
36690;DHT22;22676;51.120;3.702;2024-01-30T00:24:09;23.40;43.30
36690;DHT22;22676;51.120;3.702;2024-01-30T00:26:35;23.30;43.70
36690;DHT22;22676;51.120;3.702;2024-01-30T00:29:00;23.30;43.80
36690;DHT22;22676;51.120;3.702;2024-01-30T00:31:26;23.30;43.90
36690;DHT22;22676;51.120;3.702;2024-01-30T00:33:52;23.30;43.90
36690;DHT22;22676;51.120;3.702;2024-01-30T00:36:18;23.20;44.00
36690;DHT22;22676;51.120;3.702;2024-01-30T00:38:43;23.20;43.90
36690;DHT22;22676;51.120;3.702;2024-01-30T00:41:09;23.20;44.00
36690;DHT22;22676;51.120;3.702;2024-01-30T00:43:35;23.20;44.20
36690;DHT22;22676;51.120;3.702;2024-01-30T00:46:01;23.10;44.20
36690;DHT22;22676;51.120;3.702;2024-01-30T00:48:27;23.20;44.30
36690;DHT22;22676;51.120;3.702;2024-01-30T00:50:53;23.10;44.20
36690;DHT22;22676;51.120;3.702;2024-01-30T00:53:18;23.10;44.30
36690;DHT22;22676;51.120;3.702;2024-01-30T00:55:44;23.10;44.30
36690;DHT22;22676;51.120;3.702;2024-01-30T00:58:09;23.10;44.40
36690;DHT22;22676;51.120;3.702;2024-01-30T01:00:35;23.10;44.40
36690;DHT22;22676;51.120;3.702;2024-01-30T01:03:01;23.10;44.50
36690;DHT22;22676;51.120;3.702;2024-01-30T01:05:27;23.10;44.50
36690;DHT22;22676;51.120;3.702;2024-01-30T01:07:53;23.00;44.50
36690;DHT22;22676;51.120;3.702;2024-01-30T01:10:18;23.10;44.50
36690;DHT22;22676;51.120;3.702;2024-01-30T01:12:45;23.00;44.60
36690;DHT22;22676;51.120;3.702;2024-01-30T01:15:11;23.00;44.60
36690;DHT22;22676;51.120;3.702;2024-01-30T01:17:37;23.10;44.60
36690;DHT22;22676;51.120;3.702;2024-01-30T01:20:04;23.10;44.00
36690;DHT22;22676;51.120;3.702;2024-01-30T01:22:34;23.10;43.70
36690;DHT22;22676;51.120;3.702;2024-01-30T01:25:00;23.20;43.80
36690;DHT22;22676;51.120;3.702;2024-01-30T01:27:26;23.10;44.00
36690;DHT22;22676;51.120;3.702;2024-01-30T01:29:52;23.10;44.20
36690;DHT22;22676;51.120;3.702;2024-01-30T01:32:18;23.10;44.10
36690;DHT22;22676;51.120;3.702;2024-01-30T01:34:44;23.10;44.10
36690;DHT22;22676;51.120;3.702;2024-01-30T01:37:10;23.10;44.10
36690;DHT22;22676;51.120;3.702;2024-01-30T01:39:35;23.10;44.10
36690;DHT22;22676;51.120;3.702;2024-01-30T01:42:01;23.10;44.20
36690;DHT22;22676;51.120;3.702;2024-01-30T01:44:27;23.10;44.20
36690;DHT22;22676;51.120;3.702;2024-01-30T01:46:54;23.10;44.10
36690;DHT22;22676;51.120;3.702;2024-01-30T01:49:21;23.10;44.20
36690;DHT22;22676;51.120;3.702;2024-01-30T01:51:47;23.10;44.20
36690;DHT22;22676;51.120;3.702;2024-01-30T01:54:14;23.10;44.20
36690;DHT22;22676;51.120;3.702;2024-01-30T01:56:42;23.10;44.10
36690;DHT22;22676;51.120;3.702;2024-01-30T01:59:08;23.10;44.20
36690;DHT22;22676;51.120;3.702;2024-01-30T02:01:37;23.10;44.10
36690;DHT22;22676;51.120;3.702;2024-01-30T02:04:04;23.10;44.10
36690;DHT22;22676;51.120;3.702;2024-01-30T02:06:31;23.10;44.80
36690;DHT22;22676;51.120;3.702;2024-01-30T02:08:57;23.10;44.20
36690;DHT22;22676;51.120;3.702;2024-01-30T02:11:23;23.10;44.20
36690;DHT22;22676;51.120;3.702;2024-01-30T02:13:49;23.10;44.20
36690;DHT22;22676;51.120;3.702;2024-01-30T02:16:15;23.10;44.10
36690;DHT22;22676;51.120;3.702;2024-01-30T02:18:42;23.10;44.00
36690;DHT22;22676;51.120;3.702;2024-01-30T02:21:11;23.20;43.60
36690;DHT22;22676;51.120;3.702;2024-01-30T02:23:37;23.20;43.30
36690;DHT22;22676;51.120;3.702;2024-01-30T02:26:03;23.20;43.60
36690;DHT22;22676;51.120;3.702;2024-01-30T02:28:29;23.20;43.70
36690;DHT22;22676;51.120;3.702;2024-01-30T02:30:54;23.20;43.70
36690;DHT22;22676;51.120;3.702;2024-01-30T02:33:20;23.20;43.70
36690;DHT22;22676;51.120;3.702;2024-01-30T02:35:47;23.30;43.70
36690;DHT22;22676;51.120;3.702;2024-01-30T02:38:13;23.20;43.90
36690;DHT22;22676;51.120;3.702;2024-01-30T02:40:39;23.20;43.90
36690;DHT22;22676;51.120;3.702;2024-01-30T02:43:04;23.20;44.00
36690;DHT22;22676;51.120;3.702;2024-01-30T02:45:30;23.20;44.10
36690;DHT22;22676;51.120;3.702;2024-01-30T02:47:56;23.10;44.20
36690;DHT22;22676;51.120;3.702;2024-01-30T02:50:21;23.10;44.20
36690;DHT22;22676;51.120;3.702;2024-01-30T02:52:47;23.00;44.20
36690;DHT22;22676;51.120;3.702;2024-01-30T02:55:12;23.00;44.20
36690;DHT22;22676;51.120;3.702;2024-01-30T02:57:38;23.00;44.20
36690;DHT22;22676;51.120;3.702;2024-01-30T03:00:05;23.00;44.30
36690;DHT22;22676;51.120;3.702;2024-01-30T03:02:32;22.90;44.40
36690;DHT22;22676;51.120;3.702;2024-01-30T03:04:58;22.90;44.40
36690;DHT22;22676;51.120;3.702;2024-01-30T03:07:24;22.80;44.50
36690;DHT22;22676;51.120;3.702;2024-01-30T03:09:50;22.80;44.70
36690;DHT22;22676;51.120;3.702;2024-01-30T03:12:15;22.80;44.80
36690;DHT22;22676;51.120;3.702;2024-01-30T03:14:41;22.70;44.70
36690;DHT22;22676;51.120;3.702;2024-01-30T03:17:06;22.70;44.90
36690;DHT22;22676;51.120;3.702;2024-01-30T03:19:32;22.60;44.70
36690;DHT22;22676;51.120;3.702;2024-01-30T03:21:58;22.60;44.70
36690;DHT22;22676;51.120;3.702;2024-01-30T03:24:24;22.50;44.80
36690;DHT22;22676;51.120;3.702;2024-01-30T03:26:49;22.50;45.10
36690;DHT22;22676;51.120;3.702;2024-01-30T03:29:15;22.40;45.10
36690;DHT22;22676;51.120;3.702;2024-01-30T03:31:41;22.40;45.20
36690;DHT22;22676;51.120;3.702;2024-01-30T03:34:06;22.40;45.20
36690;DHT22;22676;51.120;3.702;2024-01-30T03:36:32;22.40;45.30
36690;DHT22;22676;51.120;3.702;2024-01-30T03:39:00;22.40;45.50
36690;DHT22;22676;51.120;3.702;2024-01-30T03:41:25;22.30;45.50
36690;DHT22;22676;51.120;3.702;2024-01-30T03:43:51;22.30;45.60
36690;DHT22;22676;51.120;3.702;2024-01-30T03:46:16;22.30;45.60
36690;DHT22;22676;51.120;3.702;2024-01-30T03:48:42;22.30;45.70
36690;DHT22;22676;51.120;3.702;2024-01-30T03:51:08;22.30;45.80
36690;DHT22;22676;51.120;3.702;2024-01-30T03:53:34;22.20;45.80
36690;DHT22;22676;51.120;3.702;2024-01-30T03:56:00;22.30;45.80
36690;DHT22;22676;51.120;3.702;2024-01-30T03:58:26;22.20;45.80
36690;DHT22;22676;51.120;3.702;2024-01-30T04:00:52;22.20;45.80
36690;DHT22;22676;51.120;3.702;2024-01-30T04:03:17;22.20;45.90
36690;DHT22;22676;51.120;3.702;2024-01-30T04:05:43;22.20;45.80
36690;DHT22;22676;51.120;3.702;2024-01-30T04:08:09;22.20;45.90
36690;DHT22;22676;51.120;3.702;2024-01-30T04:10:35;22.20;46.40
36690;DHT22;22676;51.120;3.702;2024-01-30T04:13:01;22.20;46.50
36690;DHT22;22676;51.120;3.702;2024-01-30T04:15:27;22.10;45.90
36690;DHT22;22676;51.120;3.702;2024-01-30T04:17:57;22.10;46.40
36690;DHT22;22676;51.120;3.702;2024-01-30T04:20:23;22.10;45.60
36690;DHT22;22676;51.120;3.702;2024-01-30T04:22:49;22.00;45.50
36690;DHT22;22676;51.120;3.702;2024-01-30T04:25:15;22.00;46.40
36690;DHT22;22676;51.120;3.702;2024-01-30T04:27:40;22.00;46.00
36690;DHT22;22676;51.120;3.702;2024-01-30T04:30:06;22.00;46.60
36690;DHT22;22676;51.120;3.702;2024-01-30T04:32:32;22.00;45.90
36690;DHT22;22676;51.120;3.702;2024-01-30T04:34:58;22.00;45.90
36690;DHT22;22676;51.120;3.702;2024-01-30T04:37:24;22.00;45.90
36690;DHT22;22676;51.120;3.702;2024-01-30T04:39:50;21.90;46.50
36690;DHT22;22676;51.120;3.702;2024-01-30T04:42:16;21.90;45.90
36690;DHT22;22676;51.120;3.702;2024-01-30T04:44:42;22.00;46.00
36690;DHT22;22676;51.120;3.702;2024-01-30T04:47:08;21.90;45.90
36690;DHT22;22676;51.120;3.702;2024-01-30T04:49:34;21.90;46.00
36690;DHT22;22676;51.120;3.702;2024-01-30T04:52:00;21.90;45.90
36690;DHT22;22676;51.120;3.702;2024-01-30T04:54:26;21.90;46.10
36690;DHT22;22676;51.120;3.702;2024-01-30T04:56:51;21.90;46.00
36690;DHT22;22676;51.120;3.702;2024-01-30T04:59:17;21.90;46.10
36690;DHT22;22676;51.120;3.702;2024-01-30T05:01:43;21.90;46.20
36690;DHT22;22676;51.120;3.702;2024-01-30T05:04:09;21.90;46.00
36690;DHT22;22676;51.120;3.702;2024-01-30T05:06:35;21.90;46.10
36690;DHT22;22676;51.120;3.702;2024-01-30T05:09:01;21.90;46.20
36690;DHT22;22676;51.120;3.702;2024-01-30T05:11:26;21.80;46.10
36690;DHT22;22676;51.120;3.702;2024-01-30T05:13:52;21.80;47.00
36690;DHT22;22676;51.120;3.702;2024-01-30T05:16:17;21.90;46.30
36690;DHT22;22676;51.120;3.702;2024-01-30T05:18:43;21.90;46.10
36690;DHT22;22676;51.120;3.702;2024-01-30T05:21:10;21.80;45.80
36690;DHT22;22676;51.120;3.702;2024-01-30T05:23:36;21.70;45.90
36690;DHT22;22676;51.120;3.702;2024-01-30T05:26:01;21.70;46.10
36690;DHT22;22676;51.120;3.702;2024-01-30T05:28:29;21.70;46.20
36690;DHT22;22676;51.120;3.702;2024-01-30T05:30:55;21.70;46.20
36690;DHT22;22676;51.120;3.702;2024-01-30T05:33:21;21.70;46.10
36690;DHT22;22676;51.120;3.702;2024-01-30T05:35:47;21.80;46.20
36690;DHT22;22676;51.120;3.702;2024-01-30T05:38:14;21.80;46.10
36690;DHT22;22676;51.120;3.702;2024-01-30T05:40:40;21.90;46.00
36690;DHT22;22676;51.120;3.702;2024-01-30T05:43:06;22.00;45.90
36690;DHT22;22676;51.120;3.702;2024-01-30T05:45:36;22.00;45.80
36690;DHT22;22676;51.120;3.702;2024-01-30T05:48:02;22.10;45.60
36690;DHT22;22676;51.120;3.702;2024-01-30T05:50:27;22.20;45.60
36690;DHT22;22676;51.120;3.702;2024-01-30T05:52:53;22.30;45.60
36690;DHT22;22676;51.120;3.702;2024-01-30T05:55:19;22.40;45.70
36690;DHT22;22676;51.120;3.702;2024-01-30T05:57:44;22.50;45.70
36690;DHT22;22676;51.120;3.702;2024-01-30T06:00:10;22.60;45.70
36690;DHT22;22676;51.120;3.702;2024-01-30T06:02:36;22.60;46.20
36690;DHT22;22676;51.120;3.702;2024-01-30T06:05:02;22.70;45.50
36690;DHT22;22676;51.120;3.702;2024-01-30T06:07:28;22.80;45.50
36690;DHT22;22676;51.120;3.702;2024-01-30T06:09:53;22.80;45.40
36690;DHT22;22676;51.120;3.702;2024-01-30T06:12:19;22.90;45.30
36690;DHT22;22676;51.120;3.702;2024-01-30T06:14:45;23.00;45.30
36690;DHT22;22676;51.120;3.702;2024-01-30T06:17:10;22.90;45.20
36690;DHT22;22676;51.120;3.702;2024-01-30T06:19:37;23.00;45.00
36690;DHT22;22676;51.120;3.702;2024-01-30T06:22:04;23.00;44.80
36690;DHT22;22676;51.120;3.702;2024-01-30T06:24:30;23.00;44.70
36690;DHT22;22676;51.120;3.702;2024-01-30T06:26:56;23.00;44.50
36690;DHT22;22676;51.120;3.702;2024-01-30T06:29:21;23.00;44.80
36690;DHT22;22676;51.120;3.702;2024-01-30T06:31:47;23.00;44.90
36690;DHT22;22676;51.120;3.702;2024-01-30T06:34:13;23.10;44.90
36690;DHT22;22676;51.120;3.702;2024-01-30T06:36:39;23.20;44.70
36690;DHT22;22676;51.120;3.702;2024-01-30T06:39:04;23.30;44.50
36690;DHT22;22676;51.120;3.702;2024-01-30T06:41:31;23.40;45.10
36690;DHT22;22676;51.120;3.702;2024-01-30T06:43:56;23.50;44.30
36690;DHT22;22676;51.120;3.702;2024-01-30T06:46:22;23.50;44.10
36690;DHT22;22676;51.120;3.702;2024-01-30T06:48:48;23.60;44.00
36690;DHT22;22676;51.120;3.702;2024-01-30T06:51:13;23.70;44.00
36690;DHT22;22676;51.120;3.702;2024-01-30T06:53:39;23.70;43.80
36690;DHT22;22676;51.120;3.702;2024-01-30T06:56:05;23.80;43.70
36690;DHT22;22676;51.120;3.702;2024-01-30T06:58:31;23.90;43.70
36690;DHT22;22676;51.120;3.702;2024-01-30T07:00:58;24.00;43.60
36690;DHT22;22676;51.120;3.702;2024-01-30T07:03:23;24.00;43.40
36690;DHT22;22676;51.120;3.702;2024-01-30T07:05:49;24.10;43.40
36690;DHT22;22676;51.120;3.702;2024-01-30T07:08:16;24.10;43.20
36690;DHT22;22676;51.120;3.702;2024-01-30T07:10:46;24.10;43.20
36690;DHT22;22676;51.120;3.702;2024-01-30T07:13:12;24.00;43.10
36690;DHT22;22676;51.120;3.702;2024-01-30T07:15:37;24.00;43.10
36690;DHT22;22676;51.120;3.702;2024-01-30T07:18:04;23.90;43.20
36690;DHT22;22676;51.120;3.702;2024-01-30T07:20:30;23.90;43.30
36690;DHT22;22676;51.120;3.702;2024-01-30T07:23:00;23.80;43.90
36690;DHT22;22676;51.120;3.702;2024-01-30T07:25:25;23.80;43.40
36690;DHT22;22676;51.120;3.702;2024-01-30T07:27:52;23.80;43.40
36690;DHT22;22676;51.120;3.702;2024-01-30T07:30:19;23.70;43.40
36690;DHT22;22676;51.120;3.702;2024-01-30T07:32:45;23.70;43.40
36690;DHT22;22676;51.120;3.702;2024-01-30T07:35:11;23.70;43.50
36690;DHT22;22676;51.120;3.702;2024-01-30T07:37:36;23.70;44.30
36690;DHT22;22676;51.120;3.702;2024-01-30T07:40:03;23.60;43.70
36690;DHT22;22676;51.120;3.702;2024-01-30T07:42:29;23.60;43.80
36690;DHT22;22676;51.120;3.702;2024-01-30T07:44:54;23.60;43.90
36690;DHT22;22676;51.120;3.702;2024-01-30T07:47:20;23.50;44.00
36690;DHT22;22676;51.120;3.702;2024-01-30T07:49:46;23.50;44.10
36690;DHT22;22676;51.120;3.702;2024-01-30T07:52:11;23.50;44.10
36690;DHT22;22676;51.120;3.702;2024-01-30T07:54:50;23.50;44.20
36690;DHT22;22676;51.120;3.702;2024-01-30T07:57:16;23.50;44.20
36690;DHT22;22676;51.120;3.702;2024-01-30T07:59:45;23.50;44.30
36690;DHT22;22676;51.120;3.702;2024-01-30T08:02:14;23.50;44.30
36690;DHT22;22676;51.120;3.702;2024-01-30T08:04:40;23.40;44.30
36690;DHT22;22676;51.120;3.702;2024-01-30T08:07:06;23.40;44.40
36690;DHT22;22676;51.120;3.702;2024-01-30T08:09:32;23.40;44.40
36690;DHT22;22676;51.120;3.702;2024-01-30T08:11:57;23.30;44.40
36690;DHT22;22676;51.120;3.702;2024-01-30T08:14:23;23.30;44.40
36690;DHT22;22676;51.120;3.702;2024-01-30T08:16:49;23.30;44.50
36690;DHT22;22676;51.120;3.702;2024-01-30T08:19:15;23.30;44.50
36690;DHT22;22676;51.120;3.702;2024-01-30T08:21:41;23.30;44.40
36690;DHT22;22676;51.120;3.702;2024-01-30T08:24:07;23.30;44.30
36690;DHT22;22676;51.120;3.702;2024-01-30T08:26:33;23.20;44.40
36690;DHT22;22676;51.120;3.702;2024-01-30T08:28:59;23.20;44.30
36690;DHT22;22676;51.120;3.702;2024-01-30T08:31:24;23.20;44.40
36690;DHT22;22676;51.120;3.702;2024-01-30T08:33:50;23.30;44.50
36690;DHT22;22676;51.120;3.702;2024-01-30T08:36:16;23.20;44.40
36690;DHT22;22676;51.120;3.702;2024-01-30T08:38:42;23.20;44.40
36690;DHT22;22676;51.120;3.702;2024-01-30T08:41:08;23.20;44.40
36690;DHT22;22676;51.120;3.702;2024-01-30T08:43:34;23.10;44.40
36690;DHT22;22676;51.120;3.702;2024-01-30T08:46:00;23.10;44.40
36690;DHT22;22676;51.120;3.702;2024-01-30T08:48:26;23.10;44.90
36690;DHT22;22676;51.120;3.702;2024-01-30T08:50:52;23.10;44.30
36690;DHT22;22676;51.120;3.702;2024-01-30T08:53:18;23.10;44.30
36690;DHT22;22676;51.120;3.702;2024-01-30T08:55:44;23.10;44.40
36690;DHT22;22676;51.120;3.702;2024-01-30T08:58:09;23.00;44.30
36690;DHT22;22676;51.120;3.702;2024-01-30T09:00:35;23.10;44.40
36690;DHT22;22676;51.120;3.702;2024-01-30T09:03:01;23.10;44.40
36690;DHT22;22676;51.120;3.702;2024-01-30T09:05:26;23.00;44.30
36690;DHT22;22676;51.120;3.702;2024-01-30T09:07:52;23.00;44.40
36690;DHT22;22676;51.120;3.702;2024-01-30T09:10:18;23.00;44.40
36690;DHT22;22676;51.120;3.702;2024-01-30T09:12:44;23.00;44.40
36690;DHT22;22676;51.120;3.702;2024-01-30T09:15:10;23.00;44.50
36690;DHT22;22676;51.120;3.702;2024-01-30T09:17:36;23.00;44.50
36690;DHT22;22676;51.120;3.702;2024-01-30T09:20:01;23.00;44.50
36690;DHT22;22676;51.120;3.702;2024-01-30T09:22:27;22.90;44.40
36690;DHT22;22676;51.120;3.702;2024-01-30T09:24:53;22.90;44.50
36690;DHT22;22676;51.120;3.702;2024-01-30T09:27:18;22.90;45.30
36690;DHT22;22676;51.120;3.702;2024-01-30T09:29:44;22.90;44.60
36690;DHT22;22676;51.120;3.702;2024-01-30T09:32:09;22.90;45.10
36690;DHT22;22676;51.120;3.702;2024-01-30T09:34:35;22.90;44.60
36690;DHT22;22676;51.120;3.702;2024-01-30T09:37:01;22.90;44.70
36690;DHT22;22676;51.120;3.702;2024-01-30T09:39:27;22.90;44.80
36690;DHT22;22676;51.120;3.702;2024-01-30T09:42:06;22.90;44.80
36690;DHT22;22676;51.120;3.702;2024-01-30T09:44:38;22.90;44.90
36690;DHT22;22676;51.120;3.702;2024-01-30T09:47:04;22.90;44.90
36690;DHT22;22676;51.120;3.702;2024-01-30T09:49:34;22.90;44.80
36690;DHT22;22676;51.120;3.702;2024-01-30T09:52:04;22.90;44.90
36690;DHT22;22676;51.120;3.702;2024-01-30T09:54:31;22.90;45.00
36690;DHT22;22676;51.120;3.702;2024-01-30T09:56:57;22.80;45.00
36690;DHT22;22676;51.120;3.702;2024-01-30T09:59:23;22.90;45.10
36690;DHT22;22676;51.120;3.702;2024-01-30T10:01:50;22.90;45.60
36690;DHT22;22676;51.120;3.702;2024-01-30T10:04:15;22.80;45.00
36690;DHT22;22676;51.120;3.702;2024-01-30T10:06:42;22.90;45.10
36690;DHT22;22676;51.120;3.702;2024-01-30T10:09:07;22.80;45.00
36690;DHT22;22676;51.120;3.702;2024-01-30T10:11:35;22.90;45.70
36690;DHT22;22676;51.120;3.702;2024-01-30T10:14:01;22.90;45.20
36690;DHT22;22676;51.120;3.702;2024-01-30T10:16:28;22.90;45.20
36690;DHT22;22676;51.120;3.702;2024-01-30T10:18:53;22.80;44.90
36690;DHT22;22676;51.120;3.702;2024-01-30T10:21:19;22.80;44.80
36690;DHT22;22676;51.120;3.702;2024-01-30T10:23:45;22.70;44.90
36690;DHT22;22676;51.120;3.702;2024-01-30T10:26:10;22.70;45.00
36690;DHT22;22676;51.120;3.702;2024-01-30T10:28:36;22.70;45.00
36690;DHT22;22676;51.120;3.702;2024-01-30T10:31:02;22.70;45.10
36690;DHT22;22676;51.120;3.702;2024-01-30T10:33:31;22.70;45.80
36690;DHT22;22676;51.120;3.702;2024-01-30T10:36:04;22.70;45.30
36690;DHT22;22676;51.120;3.702;2024-01-30T10:38:31;22.70;45.30
36690;DHT22;22676;51.120;3.702;2024-01-30T10:40:57;22.70;45.30
36690;DHT22;22676;51.120;3.702;2024-01-30T10:45:57;22.70;45.30
36690;DHT22;22676;51.120;3.702;2024-01-30T10:48:30;22.70;45.30
36690;DHT22;22676;51.120;3.702;2024-01-30T10:50:59;22.70;45.30
36690;DHT22;22676;51.120;3.702;2024-01-30T10:53:26;22.70;45.30
36690;DHT22;22676;51.120;3.702;2024-01-30T10:55:54;22.70;45.30
36690;DHT22;22676;51.120;3.702;2024-01-30T10:58:20;22.70;45.40
36690;DHT22;22676;51.120;3.702;2024-01-30T11:00:47;22.70;45.40
36690;DHT22;22676;51.120;3.702;2024-01-30T11:03:14;22.70;45.30
36690;DHT22;22676;51.120;3.702;2024-01-30T11:05:41;22.60;45.40
36690;DHT22;22676;51.120;3.702;2024-01-30T11:08:13;22.60;45.30
36690;DHT22;22676;51.120;3.702;2024-01-30T11:10:48;22.60;45.30
36690;DHT22;22676;51.120;3.702;2024-01-30T11:13:14;22.60;45.20
36690;DHT22;22676;51.120;3.702;2024-01-30T11:15:40;22.60;45.20
36690;DHT22;22676;51.120;3.702;2024-01-30T11:18:06;22.60;45.20
36690;DHT22;22676;51.120;3.702;2024-01-30T11:20:32;22.60;44.70
36690;DHT22;22676;51.120;3.702;2024-01-30T11:22:59;22.50;44.50
36690;DHT22;22676;51.120;3.702;2024-01-30T11:25:25;22.50;44.70
36690;DHT22;22676;51.120;3.702;2024-01-30T11:27:52;22.50;45.00
36690;DHT22;22676;51.120;3.702;2024-01-30T11:30:26;22.50;45.00
36690;DHT22;22676;51.120;3.702;2024-01-30T11:33:11;22.50;45.20
36690;DHT22;22676;51.120;3.702;2024-01-30T11:35:42;22.50;45.60
36690;DHT22;22676;51.120;3.702;2024-01-30T11:38:10;22.50;44.70
36690;DHT22;22676;51.120;3.702;2024-01-30T11:40:38;22.40;44.60
36690;DHT22;22676;51.120;3.702;2024-01-30T11:43:06;22.40;44.60
36690;DHT22;22676;51.120;3.702;2024-01-30T11:45:32;22.40;44.70
36690;DHT22;22676;51.120;3.702;2024-01-30T11:47:58;22.40;44.90
36690;DHT22;22676;51.120;3.702;2024-01-30T11:50:29;22.40;44.90
36690;DHT22;22676;51.120;3.702;2024-01-30T11:52:56;22.50;45.00
36690;DHT22;22676;51.120;3.702;2024-01-30T11:55:23;22.50;45.20
36690;DHT22;22676;51.120;3.702;2024-01-30T11:57:49;22.50;45.00
36690;DHT22;22676;51.120;3.702;2024-01-30T12:00:16;22.40;45.10
36690;DHT22;22676;51.120;3.702;2024-01-30T12:02:42;22.40;45.20
36690;DHT22;22676;51.120;3.702;2024-01-30T12:05:09;22.40;45.20
36690;DHT22;22676;51.120;3.702;2024-01-30T12:07:35;22.50;45.30
36690;DHT22;22676;51.120;3.702;2024-01-30T12:10:00;22.60;45.30
36690;DHT22;22676;51.120;3.702;2024-01-30T12:12:27;22.60;45.20
36690;DHT22;22676;51.120;3.702;2024-01-30T12:14:53;22.70;45.00
36690;DHT22;22676;51.120;3.702;2024-01-30T12:17:32;22.80;44.90
36690;DHT22;22676;51.120;3.702;2024-01-30T12:20:04;22.90;44.50
36690;DHT22;22676;51.120;3.702;2024-01-30T12:22:38;22.90;44.30
36690;DHT22;22676;51.120;3.702;2024-01-30T12:25:18;23.00;44.10
36690;DHT22;22676;51.120;3.702;2024-01-30T12:27:48;23.00;44.20
36690;DHT22;22676;51.120;3.702;2024-01-30T12:30:18;23.20;44.30
36690;DHT22;22676;51.120;3.702;2024-01-30T12:32:45;23.20;44.10
36690;DHT22;22676;51.120;3.702;2024-01-30T12:35:17;23.30;44.10
36690;DHT22;22676;51.120;3.702;2024-01-30T12:37:44;23.30;44.10
36690;DHT22;22676;51.120;3.702;2024-01-30T12:40:11;23.40;44.00
36690;DHT22;22676;51.120;3.702;2024-01-30T12:42:40;23.40;43.90
36690;DHT22;22676;51.120;3.702;2024-01-30T12:45:07;23.50;44.00
36690;DHT22;22676;51.120;3.702;2024-01-30T12:47:33;23.60;44.00
36690;DHT22;22676;51.120;3.702;2024-01-30T12:49:59;23.60;44.00
36690;DHT22;22676;51.120;3.702;2024-01-30T12:52:25;23.70;43.90
36690;DHT22;22676;51.120;3.702;2024-01-30T12:54:51;23.80;43.70
36690;DHT22;22676;51.120;3.702;2024-01-30T12:57:17;23.80;43.50
36690;DHT22;22676;51.120;3.702;2024-01-30T12:59:44;23.90;43.40
36690;DHT22;22676;51.120;3.702;2024-01-30T13:02:10;24.00;43.30
36690;DHT22;22676;51.120;3.702;2024-01-30T13:04:36;24.00;43.30
36690;DHT22;22676;51.120;3.702;2024-01-30T13:07:02;24.00;43.10
36690;DHT22;22676;51.120;3.702;2024-01-30T13:09:29;24.00;43.20
36690;DHT22;22676;51.120;3.702;2024-01-30T13:11:56;24.00;43.40
36690;DHT22;22676;51.120;3.702;2024-01-30T13:14:21;24.00;43.40
36690;DHT22;22676;51.120;3.702;2024-01-30T13:16:47;24.00;43.80
36690;DHT22;22676;51.120;3.702;2024-01-30T13:19:13;23.90;42.90
36690;DHT22;22676;51.120;3.702;2024-01-30T13:21:38;23.80;43.10
36690;DHT22;22676;51.120;3.702;2024-01-30T13:24:04;23.70;43.50
36690;DHT22;22676;51.120;3.702;2024-01-30T13:26:32;23.70;43.40
36690;DHT22;22676;51.120;3.702;2024-01-30T13:28:58;23.70;43.60
36690;DHT22;22676;51.120;3.702;2024-01-30T13:31:24;23.70;43.70
36690;DHT22;22676;51.120;3.702;2024-01-30T13:33:49;23.70;43.90
36690;DHT22;22676;51.120;3.702;2024-01-30T13:36:15;23.60;44.00
36690;DHT22;22676;51.120;3.702;2024-01-30T13:38:41;23.60;44.00
36690;DHT22;22676;51.120;3.702;2024-01-30T13:41:06;23.60;44.60
36690;DHT22;22676;51.120;3.702;2024-01-30T13:43:32;23.60;44.60
36690;DHT22;22676;51.120;3.702;2024-01-30T13:45:58;23.60;44.10
36690;DHT22;22676;51.120;3.702;2024-01-30T13:48:24;23.60;44.10
36690;DHT22;22676;51.120;3.702;2024-01-30T13:50:50;23.60;44.20
36690;DHT22;22676;51.120;3.702;2024-01-30T13:53:16;23.50;44.70
36690;DHT22;22676;51.120;3.702;2024-01-30T13:55:41;23.50;44.10
36690;DHT22;22676;51.120;3.702;2024-01-30T13:58:07;23.50;44.10
36690;DHT22;22676;51.120;3.702;2024-01-30T14:00:33;23.50;44.20
36690;DHT22;22676;51.120;3.702;2024-01-30T14:02:59;23.50;44.90
36690;DHT22;22676;51.120;3.702;2024-01-30T14:05:26;23.50;44.80
36690;DHT22;22676;51.120;3.702;2024-01-30T14:07:53;23.50;44.30
36690;DHT22;22676;51.120;3.702;2024-01-30T14:10:19;23.50;44.30
36690;DHT22;22676;51.120;3.702;2024-01-30T14:12:45;23.40;44.30
36690;DHT22;22676;51.120;3.702;2024-01-30T14:15:11;23.50;44.30
36690;DHT22;22676;51.120;3.702;2024-01-30T14:17:39;23.50;44.30
36690;DHT22;22676;51.120;3.702;2024-01-30T14:20:05;23.40;43.80
36690;DHT22;22676;51.120;3.702;2024-01-30T14:22:34;23.30;43.60
36690;DHT22;22676;51.120;3.702;2024-01-30T14:25:00;23.30;44.10
36690;DHT22;22676;51.120;3.702;2024-01-30T14:27:29;23.20;44.20
36690;DHT22;22676;51.120;3.702;2024-01-30T14:29:56;23.20;44.80
36690;DHT22;22676;51.120;3.702;2024-01-30T14:32:22;23.20;44.20
36690;DHT22;22676;51.120;3.702;2024-01-30T14:34:49;23.20;44.20
36690;DHT22;22676;51.120;3.702;2024-01-30T14:37:14;23.20;44.00
36690;DHT22;22676;51.120;3.702;2024-01-30T14:39:40;23.20;44.00
36690;DHT22;22676;51.120;3.702;2024-01-30T14:42:06;23.20;43.90
36690;DHT22;22676;51.120;3.702;2024-01-30T14:44:32;23.20;43.80
36690;DHT22;22676;51.120;3.702;2024-01-30T14:46:59;23.20;43.70
36690;DHT22;22676;51.120;3.702;2024-01-30T14:49:25;23.20;43.80
36690;DHT22;22676;51.120;3.702;2024-01-30T14:51:51;23.20;43.80
36690;DHT22;22676;51.120;3.702;2024-01-30T14:54:16;23.10;43.90
36690;DHT22;22676;51.120;3.702;2024-01-30T14:56:42;23.10;43.80
36690;DHT22;22676;51.120;3.702;2024-01-30T14:59:08;23.10;43.80
36690;DHT22;22676;51.120;3.702;2024-01-30T15:01:33;23.10;43.90
36690;DHT22;22676;51.120;3.702;2024-01-30T15:03:59;23.10;44.00
36690;DHT22;22676;51.120;3.702;2024-01-30T15:06:25;23.00;44.00
36690;DHT22;22676;51.120;3.702;2024-01-30T15:08:51;23.00;44.00
36690;DHT22;22676;51.120;3.702;2024-01-30T15:11:17;23.00;44.00
36690;DHT22;22676;51.120;3.702;2024-01-30T15:13:43;23.10;43.90
36690;DHT22;22676;51.120;3.702;2024-01-30T15:16:09;23.10;43.90
36690;DHT22;22676;51.120;3.702;2024-01-30T15:18:34;23.10;44.00
36690;DHT22;22676;51.120;3.702;2024-01-30T15:21:00;23.00;44.10
36690;DHT22;22676;51.120;3.702;2024-01-30T15:23:26;22.90;44.00
36690;DHT22;22676;51.120;3.702;2024-01-30T15:25:51;22.80;44.10
36690;DHT22;22676;51.120;3.702;2024-01-30T15:28:17;22.80;44.10